createdAt,value
2019-06-26T00:00:36.669Z,101465.00
2019-06-26T00:05:41.394Z,101459.00
2019-06-26T00:10:45.935Z,101457.00
2019-06-26T00:15:50.438Z,101458.00
2019-06-26T00:20:55.084Z,101462.00
2019-06-26T00:25:59.711Z,101451.00
2019-06-26T00:31:04.269Z,101443.00
2019-06-26T00:36:08.834Z,101445.00
2019-06-26T00:41:13.342Z,101437.00
2019-06-26T00:46:17.985Z,101446.00
2019-06-26T00:51:22.546Z,101446.00
2019-06-26T00:56:27.220Z,101438.00
2019-06-26T01:01:31.840Z,101436.00
2019-06-26T01:06:45.371Z,101432.00
2019-06-26T01:11:49.868Z,101416.00
2019-06-26T01:16:54.540Z,101420.00
2019-06-26T01:21:59.167Z,101429.00
2019-06-26T01:27:03.801Z,101428.00
2019-06-26T01:32:08.237Z,101429.00
2019-06-26T01:37:12.733Z,101430.00
2019-06-26T01:42:17.157Z,101424.00
2019-06-26T01:47:21.732Z,101425.00
2019-06-26T01:52:26.322Z,101422.00
2019-06-26T01:57:30.856Z,101430.00
2019-06-26T02:02:35.286Z,101427.00
2019-06-26T02:07:40.004Z,101418.00
2019-06-26T02:12:44.594Z,101427.00
2019-06-26T02:17:49.161Z,101421.00
2019-06-26T02:22:53.729Z,101431.00
2019-06-26T02:27:58.219Z,101432.00
2019-06-26T02:33:02.641Z,101419.00
2019-06-26T02:38:07.138Z,101430.00
2019-06-26T02:43:11.768Z,101430.00
2019-06-26T02:48:16.400Z,101422.00
2019-06-26T02:53:20.883Z,101423.00
2019-06-26T02:58:25.521Z,101430.00
2019-06-26T03:03:30.616Z,101433.00
2019-06-26T03:08:35.033Z,101424.00
2019-06-26T03:13:39.589Z,101435.00
2019-06-26T03:18:44.171Z,101425.00
2019-06-26T03:23:48.705Z,101435.00
2019-06-26T03:28:53.347Z,101431.00
2019-06-26T03:33:57.914Z,101429.00
2019-06-26T03:39:02.313Z,101426.00
2019-06-26T03:44:06.794Z,101418.00
2019-06-26T03:49:11.279Z,101422.00
2019-06-26T03:54:16.439Z,101424.00
2019-06-26T03:59:20.997Z,101418.00
2019-06-26T04:04:25.569Z,101419.00
2019-06-26T04:09:30.041Z,101413.00
2019-06-26T04:14:34.523Z,101417.00
2019-06-26T04:19:39.359Z,101420.00
2019-06-26T04:24:43.849Z,101415.00
2019-06-26T04:29:48.423Z,101418.00
2019-06-26T04:34:54.561Z,101423.00
2019-06-26T04:39:59.204Z,101421.00
2019-06-26T04:45:05.461Z,101422.00
2019-06-26T04:50:11.769Z,101410.00
2019-06-26T04:55:16.380Z,101413.00
2019-06-26T05:00:21.986Z,101410.00
2019-06-26T05:05:38.879Z,101400.00
2019-06-26T05:10:32.793Z,101397.00
2019-06-26T05:15:37.472Z,101393.00
2019-06-26T05:20:42.050Z,101396.00
2019-06-26T05:25:46.501Z,101397.00
2019-06-26T05:30:51.005Z,101397.00
2019-06-26T05:35:55.662Z,101404.00
2019-06-26T05:41:00.149Z,101410.00
2019-06-26T05:46:04.854Z,101405.00
2019-06-26T05:51:09.442Z,101393.00
2019-06-26T05:56:13.962Z,101389.00
2019-06-26T06:01:18.518Z,101417.00
2019-06-26T06:06:23.093Z,101423.00
2019-06-26T06:11:27.571Z,101431.00
2019-06-26T06:16:46.426Z,101431.00
2019-06-26T06:21:38.462Z,101432.00
2019-06-26T06:26:42.864Z,101447.00
2019-06-26T06:31:47.355Z,101446.00
2019-06-26T06:36:51.919Z,101456.00
2019-06-26T06:41:56.364Z,101454.00
2019-06-26T06:47:04.285Z,101460.00
2019-06-26T06:52:07.294Z,101462.00
2019-06-26T06:57:11.780Z,101465.00
2019-06-26T07:02:16.362Z,101466.00
2019-06-26T07:07:20.975Z,101468.00
2019-06-26T07:12:25.763Z,101463.00
2019-06-26T07:17:30.409Z,101475.00
2019-06-26T07:22:35.027Z,101487.00
2019-06-26T07:27:39.595Z,101490.00
2019-06-26T07:32:44.226Z,101470.00
2019-06-26T07:37:48.707Z,101482.00
2019-06-26T07:42:53.288Z,101488.00
2019-06-26T07:47:57.689Z,101481.00
2019-06-26T07:53:02.274Z,101491.00
2019-06-26T07:58:06.959Z,101487.00
2019-06-26T08:03:11.438Z,101491.00
2019-06-26T08:08:15.920Z,101498.00
2019-06-26T08:13:20.344Z,101493.00
2019-06-26T08:18:24.897Z,101495.00
2019-06-26T08:23:29.525Z,101501.00
2019-06-26T08:28:33.942Z,101503.00
2019-06-26T08:33:38.505Z,101504.00
2019-06-26T08:38:42.924Z,101499.00
2019-06-26T08:43:47.745Z,101505.00
2019-06-26T08:48:53.157Z,101516.00
2019-06-26T08:53:57.709Z,101510.00
2019-06-26T08:59:02.264Z,101520.00
2019-06-26T09:04:06.901Z,101519.00
2019-06-26T09:09:11.373Z,101531.00
2019-06-26T09:14:16.005Z,101521.00
2019-06-26T09:19:20.639Z,101531.00
2019-06-26T09:24:25.044Z,101547.00
2019-06-26T09:29:31.334Z,101552.00
2019-06-26T09:34:35.907Z,101557.00
2019-06-26T09:39:40.341Z,101558.00
2019-06-26T09:44:44.912Z,101564.00
2019-06-26T09:49:52.759Z,101578.00
2019-06-26T09:54:57.365Z,101594.00
2019-06-26T10:00:01.958Z,101595.00
2019-06-26T10:05:10.266Z,101598.00
2019-06-26T10:10:16.574Z,101606.00
2019-06-26T10:15:21.264Z,101596.00
2019-06-26T10:20:25.903Z,101597.00
2019-06-26T10:25:30.433Z,101614.00
2019-06-26T10:30:35.032Z,101623.00
2019-06-26T10:35:39.462Z,101623.00
2019-06-26T10:40:44.034Z,101634.00
2019-06-26T10:45:48.634Z,101635.00
2019-06-26T10:50:58.555Z,101638.00
2019-06-26T10:55:59.492Z,101638.00
2019-06-26T11:01:04.124Z,101648.00
2019-06-26T11:06:08.737Z,101645.00
2019-06-26T11:11:13.226Z,101643.00
2019-06-26T11:16:17.862Z,101646.00
2019-06-26T11:21:22.410Z,101640.00
2019-06-26T11:26:26.973Z,101648.00
2019-06-26T11:31:31.445Z,101665.00
2019-06-26T11:36:36.015Z,101662.00
2019-06-26T11:41:40.992Z,101656.00
2019-06-26T11:46:45.501Z,101669.00
2019-06-26T11:51:51.588Z,101663.00
2019-06-26T11:56:56.221Z,101668.00
2019-06-26T12:02:00.688Z,101671.00
2019-06-26T12:07:05.358Z,101673.00
2019-06-26T12:12:09.936Z,101682.00
2019-06-26T12:17:14.407Z,101683.00
2019-06-26T12:22:19.033Z,101682.00
2019-06-26T12:27:23.550Z,101686.00
2019-06-26T12:32:28.112Z,101682.00
2019-06-26T12:37:37.670Z,101703.00
2019-06-26T12:42:39.018Z,101702.00
2019-06-26T12:47:43.550Z,101702.00
2019-06-26T12:52:48.181Z,101704.00
2019-06-26T12:57:52.767Z,101709.00
2019-06-26T13:02:57.274Z,101712.00
2019-06-26T13:08:01.822Z,101721.00
2019-06-26T13:13:06.494Z,101716.00
2019-06-26T13:18:11.388Z,101706.00
2019-06-26T13:23:16.171Z,101731.00
2019-06-26T13:28:20.708Z,101716.00
2019-06-26T13:33:25.147Z,101719.00
2019-06-26T13:38:29.772Z,101732.00
2019-06-26T13:43:34.409Z,101736.00
2019-06-26T13:48:38.889Z,101742.00
2019-06-26T13:53:43.508Z,101739.00
2019-06-26T13:58:48.031Z,101739.00
2019-06-26T14:03:52.586Z,101742.00
2019-06-26T14:08:57.202Z,101763.00
2019-06-26T14:14:01.856Z,101752.00
2019-06-26T14:19:06.561Z,101750.00
2019-06-26T14:24:11.044Z,101754.00
2019-06-26T14:29:20.815Z,101761.00
2019-06-26T14:34:21.739Z,101772.00
2019-06-26T14:39:26.299Z,101765.00
2019-06-26T14:44:30.850Z,101779.00
2019-06-26T14:49:36.400Z,101786.00
2019-06-26T14:54:40.785Z,101783.00
2019-06-26T14:59:45.269Z,101783.00
2019-06-26T15:04:50.944Z,101782.00
2019-06-26T15:09:55.409Z,101775.00
2019-06-26T15:15:00.046Z,101793.00
2019-06-26T15:20:05.687Z,101788.00
2019-06-26T15:25:10.626Z,101792.00
2019-06-26T15:30:17.106Z,101788.00
2019-06-26T15:35:22.012Z,101783.00
2019-06-26T15:40:26.501Z,101801.00
2019-06-26T15:45:31.082Z,101811.00
2019-06-26T15:50:35.878Z,101817.00
2019-06-26T15:55:40.916Z,101819.00
2019-06-26T16:00:47.064Z,101830.00
2019-06-26T16:05:51.537Z,101838.00
2019-06-26T16:10:56.073Z,101839.00
2019-06-26T16:16:00.493Z,101843.00
2019-06-26T16:21:05.129Z,101848.00
2019-06-26T16:26:09.614Z,101857.00
2019-06-26T16:31:14.102Z,101852.00
2019-06-26T16:36:18.676Z,101870.00
2019-06-26T16:41:23.160Z,101877.00
2019-06-26T16:46:27.791Z,101871.00
2019-06-26T16:51:32.366Z,101877.00
2019-06-26T16:56:37.883Z,101870.00
2019-06-26T17:01:42.369Z,101874.00
2019-06-26T17:06:46.870Z,101869.00
2019-06-26T17:11:51.528Z,101876.00
2019-06-26T17:16:58.255Z,101888.00
2019-06-26T17:22:02.750Z,101888.00
2019-06-26T17:27:08.503Z,101895.00
2019-06-26T17:32:12.969Z,101914.00
2019-06-26T17:37:17.507Z,101898.00
2019-06-26T17:42:22.074Z,101895.00
2019-06-26T17:47:26.561Z,101920.00
2019-06-26T17:52:35.623Z,101915.00
2019-06-26T17:57:38.289Z,101913.00
2019-06-26T18:02:43.337Z,101923.00
2019-06-26T18:07:47.982Z,101940.00
2019-06-26T18:12:52.500Z,101941.00
2019-06-26T18:17:57.136Z,101942.00
2019-06-26T18:23:07.483Z,101942.00
2019-06-26T18:28:08.942Z,101940.00
2019-06-26T18:33:14.710Z,101951.00
2019-06-26T18:38:19.161Z,101953.00
2019-06-26T18:43:23.657Z,101951.00
2019-06-26T18:48:28.146Z,101963.00
2019-06-26T18:53:32.778Z,101968.00
2019-06-26T18:58:37.455Z,101974.00
2019-06-26T19:03:41.890Z,101976.00
2019-06-26T19:08:46.415Z,101975.00
2019-06-26T19:13:51.330Z,101979.00
2019-06-26T19:18:57.203Z,101986.00
2019-06-26T19:24:10.098Z,101985.00
2019-06-26T19:29:08.122Z,101995.00
2019-06-26T19:34:12.606Z,101986.00
2019-06-26T19:39:20.546Z,101992.00
2019-06-26T19:44:23.629Z,102003.00
2019-06-26T19:49:28.251Z,102004.00
2019-06-26T19:54:32.730Z,101999.00
2019-06-26T19:59:37.705Z,102008.00
2019-06-26T20:04:42.184Z,102019.00
2019-06-26T20:09:46.597Z,102022.00
2019-06-26T20:14:51.039Z,102011.00
2019-06-26T20:19:55.609Z,102022.00
2019-06-26T20:25:00.280Z,102018.00
2019-06-26T20:30:09.603Z,102025.00
2019-06-26T20:35:12.566Z,102027.00
2019-06-26T20:40:17.296Z,102030.00
2019-06-26T20:45:21.804Z,102028.00
2019-06-26T20:50:26.203Z,102032.00
2019-06-26T20:55:30.763Z,102035.00
2019-06-26T21:00:35.328Z,102037.00
2019-06-26T21:05:39.843Z,102048.00
2019-06-26T21:10:44.389Z,102052.00
2019-06-26T21:15:48.845Z,102056.00
2019-06-26T21:20:53.387Z,102058.00
2019-06-26T21:25:57.849Z,102052.00
2019-06-26T21:31:02.473Z,102063.00
2019-06-26T21:36:07.207Z,102055.00
2019-06-26T21:41:11.908Z,102060.00
2019-06-26T21:46:16.337Z,102063.00
2019-06-26T21:51:20.895Z,102063.00
2019-06-26T21:56:25.676Z,102068.00
2019-06-26T22:01:30.673Z,102065.00
2019-06-26T22:06:35.992Z,102069.00
2019-06-26T22:11:40.601Z,102070.00
2019-06-26T22:16:45.159Z,102065.00
2019-06-26T22:21:49.782Z,102076.00
2019-06-26T22:26:54.349Z,102081.00
2019-06-26T22:31:58.926Z,102076.00
2019-06-26T22:37:03.492Z,102084.00
2019-06-26T22:42:07.983Z,102078.00
2019-06-26T22:47:12.540Z,102079.00
2019-06-26T22:52:17.102Z,102077.00
2019-06-26T22:57:21.654Z,102085.00
2019-06-26T23:02:26.087Z,102079.00
2019-06-26T23:07:30.520Z,102085.00
2019-06-26T23:12:35.077Z,102085.00
2019-06-26T23:17:39.590Z,102084.00
2019-06-26T23:22:44.153Z,102077.00
2019-06-26T23:27:48.655Z,102079.00
2019-06-26T23:32:53.142Z,102080.00
2019-06-26T23:37:57.588Z,102078.00
2019-06-26T23:43:02.105Z,102077.00
2019-06-26T23:48:06.612Z,102082.00
2019-06-26T23:53:11.111Z,102088.00
2019-06-26T23:58:15.682Z,102087.00
